createdAt,value
2022-10-25T00:04:36.815Z,100084.41
2022-10-25T00:09:40.809Z,100090.63
2022-10-25T00:14:43.433Z,100091.34
2022-10-25T00:19:47.027Z,100092.19
2022-10-25T00:24:50.989Z,100099.03
2022-10-25T00:29:53.788Z,100102.56
2022-10-25T00:34:56.443Z,100106.66
2022-10-25T00:40:00.480Z,100102.75
2022-10-25T00:45:03.560Z,100102.00
2022-10-25T00:50:13.836Z,100111.38
2022-10-25T00:55:18.079Z,100109.41
2022-10-25T01:00:20.811Z,100119.50
2022-10-25T01:05:23.880Z,100114.81
2022-10-25T01:10:28.019Z,100114.09
2022-10-25T01:15:42.142Z,100114.97
2022-10-25T01:21:11.264Z,100120.34
2022-10-25T01:26:42.196Z,100116.66
2022-10-25T01:31:46.729Z,100110.03
2022-10-25T01:36:51.678Z,100114.28
2022-10-25T01:41:58.164Z,100116.97
2022-10-25T01:47:03.503Z,100115.84
2022-10-25T01:52:06.335Z,100108.44
2022-10-25T01:57:37.346Z,100108.31
2022-10-25T02:02:47.858Z,100107.59
2022-10-25T02:07:54.463Z,100108.16
2022-10-25T02:12:58.061Z,100108.28
2022-10-25T02:18:03.029Z,100107.41
2022-10-25T02:23:06.520Z,100116.47
2022-10-25T02:28:10.296Z,100116.63
2022-10-25T02:33:14.331Z,100119.13
2022-10-25T02:38:16.980Z,100120.41
2022-10-25T02:43:19.666Z,100127.75
2022-10-25T02:48:23.846Z,100137.91
2022-10-25T02:53:28.630Z,100141.88
2022-10-25T02:58:32.041Z,100136.88
2022-10-25T03:03:36.107Z,100138.72
2022-10-25T03:08:38.776Z,100125.53
2022-10-25T03:13:41.421Z,100127.38
2022-10-25T03:18:45.495Z,100130.34
2022-10-25T03:23:48.174Z,100133.88
2022-10-25T03:28:50.810Z,100137.44
2022-10-25T03:33:54.759Z,100137.06
2022-10-25T03:38:57.453Z,100146.13
2022-10-25T03:44:00.145Z,100164.22
2022-10-25T03:49:04.324Z,100167.28
2022-10-25T03:54:07.021Z,100169.41
2022-10-25T03:59:09.796Z,100177.75
2022-10-25T04:04:13.759Z,100187.03
2022-10-25T04:09:16.742Z,100191.69
2022-10-25T04:14:19.415Z,100195.75
2022-10-25T04:19:23.393Z,100196.84
2022-10-25T04:24:26.081Z,100202.00
2022-10-25T04:29:28.774Z,100203.13
2022-10-25T04:34:32.770Z,100216.09
2022-10-25T04:39:35.461Z,100223.56
2022-10-25T04:44:38.166Z,100230.78
2022-10-25T04:49:42.133Z,100231.53
2022-10-25T04:54:44.810Z,100236.31
2022-10-25T04:59:47.485Z,100242.41
2022-10-25T05:04:51.490Z,100235.81
2022-10-25T05:09:54.136Z,100240.34
2022-10-25T05:14:56.809Z,100235.22
2022-10-25T05:20:01.004Z,100230.94
2022-10-25T05:25:03.831Z,100233.75
2022-10-25T05:30:07.615Z,100248.16
2022-10-25T05:35:11.688Z,100243.03
2022-10-25T05:40:14.464Z,100250.34
2022-10-25T05:45:17.281Z,100257.66
2022-10-25T05:50:21.377Z,100260.47
2022-10-25T05:55:24.150Z,100258.19
2022-10-25T06:00:27.084Z,100266.22
2022-10-25T06:05:31.144Z,100266.59
2022-10-25T06:10:33.821Z,100280.75
2022-10-25T06:15:38.112Z,100283.44
2022-10-25T06:20:42.195Z,100299.44
2022-10-25T06:25:44.936Z,100291.47
2022-10-25T06:30:47.622Z,100310.53
2022-10-25T06:35:55.675Z,100302.47
2022-10-25T06:41:01.316Z,100301.75
2022-10-25T06:46:06.320Z,100309.81
2022-10-25T06:51:10.614Z,100311.00
2022-10-25T06:56:14.889Z,100321.53
2022-10-25T07:01:18.831Z,100326.03
2022-10-25T07:06:26.286Z,100327.16
2022-10-25T07:11:29.869Z,100322.13
2022-10-25T07:16:32.528Z,100334.69
2022-10-25T07:21:36.694Z,100338.34
2022-10-25T07:26:40.371Z,100325.66
2022-10-25T07:31:44.205Z,100336.06
2022-10-25T07:36:48.286Z,100333.25
2022-10-25T07:41:51.041Z,100344.34
2022-10-25T07:46:55.429Z,100356.69
2022-10-25T07:51:59.528Z,100347.78
2022-10-25T07:57:02.249Z,100351.06
2022-10-25T08:02:04.983Z,100365.47
2022-10-25T08:07:09.021Z,100364.75
2022-10-25T08:12:11.754Z,100364.50
2022-10-25T08:17:15.615Z,100362.03
2022-10-25T08:22:19.753Z,100377.13
2022-10-25T08:27:22.452Z,100380.16
2022-10-25T08:32:25.440Z,100378.03
2022-10-25T08:37:29.480Z,100384.50
2022-10-25T08:42:35.112Z,100389.78
2022-10-25T08:47:38.971Z,100389.09
2022-10-25T08:52:44.883Z,100388.59
2022-10-25T08:57:47.926Z,100390.81
2022-10-25T09:02:52.781Z,100393.25
2022-10-25T09:08:04.872Z,100394.63
2022-10-25T09:13:11.297Z,100399.00
2022-10-25T09:18:16.407Z,100402.41
2022-10-25T09:23:25.986Z,100421.59
2022-10-25T09:28:35.397Z,100412.09
2022-10-25T09:33:38.159Z,100416.81
2022-10-25T09:38:43.559Z,100427.69
2022-10-25T09:43:48.448Z,100434.75
2022-10-25T09:48:53.831Z,100437.56
2022-10-25T09:53:57.830Z,100434.63
2022-10-25T09:59:04.323Z,100439.28
2022-10-25T10:04:24.626Z,100448.44
2022-10-25T10:09:29.520Z,100442.97
2022-10-25T10:14:35.724Z,100443.59
2022-10-25T10:19:38.455Z,100449.69
2022-10-25T10:24:43.255Z,100450.44
2022-10-25T10:29:53.271Z,100445.91
2022-10-25T10:34:56.489Z,100452.25
2022-10-25T10:40:01.594Z,100451.53
2022-10-25T10:45:15.402Z,100445.19
2022-10-25T10:50:24.368Z,100439.56
2022-10-25T10:55:29.711Z,100444.69
2022-10-25T11:00:32.823Z,100440.69
2022-10-25T11:05:36.246Z,100446.69
2022-10-25T11:10:40.438Z,100443.91
2022-10-25T11:16:21.003Z,100450.22
2022-10-25T11:21:33.773Z,100451.69
2022-10-25T11:26:47.185Z,100445.59
2022-10-25T11:31:54.725Z,100450.13
2022-10-25T11:37:03.272Z,100457.69
2022-10-25T11:42:16.570Z,100456.47
2022-10-25T11:47:25.227Z,100458.06
2022-10-25T11:52:56.826Z,100447.91
2022-10-25T11:58:08.019Z,100454.00
2022-10-25T12:03:18.471Z,100442.66
2022-10-25T12:08:27.018Z,100455.16
2022-10-25T12:13:32.031Z,100453.44
2022-10-25T12:18:38.033Z,100440.44
2022-10-25T12:23:42.881Z,100449.63
2022-10-25T12:28:47.435Z,100447.91
2022-10-25T12:33:52.595Z,100446.03
2022-10-25T12:38:55.422Z,100445.09
2022-10-25T12:44:12.036Z,100447.41
2022-10-25T12:49:23.160Z,100438.84
2022-10-25T12:54:45.551Z,100449.59
2022-10-25T12:59:58.027Z,100450.59
2022-10-25T13:05:08.654Z,100439.97
2022-10-25T13:10:17.651Z,100459.53
2022-10-25T13:15:21.882Z,100457.69
2022-10-25T13:20:46.022Z,100457.44
2022-10-25T13:26:06.365Z,100464.78
2022-10-25T13:31:38.689Z,100466.00
2022-10-25T13:36:48.015Z,100476.88
2022-10-25T13:41:50.749Z,100472.25
2022-10-25T13:46:54.995Z,100471.75
2022-10-25T13:51:58.559Z,100469.78
2022-10-25T13:57:01.243Z,100472.47
2022-10-25T14:02:17.169Z,100468.94
2022-10-25T14:07:47.780Z,100471.03
2022-10-25T14:12:50.694Z,100475.28
2022-10-25T14:17:54.929Z,100479.09
2022-10-25T14:23:00.264Z,100486.41
2022-10-25T14:28:14.042Z,100480.78
2022-10-25T14:33:41.872Z,100479.34
2022-10-25T14:38:51.877Z,100471.03
2022-10-25T14:43:56.006Z,100470.03
2022-10-25T14:49:01.353Z,100473.84
2022-10-25T14:54:05.238Z,100453.53
2022-10-25T14:59:09.234Z,100462.84
2022-10-25T15:04:13.904Z,100467.47
2022-10-25T15:09:41.715Z,100472.47
2022-10-25T15:14:41.702Z,100472.72
2022-10-25T15:20:02.886Z,100478.22
2022-10-25T15:25:17.661Z,100482.03
2022-10-25T15:30:36.331Z,100475.91
2022-10-25T15:35:47.148Z,100480.53
2022-10-25T15:40:50.091Z,100485.19
2022-10-25T15:45:52.951Z,100491.03
2022-10-25T15:50:57.790Z,100488.72
2022-10-25T15:56:00.457Z,100491.53
2022-10-25T16:01:03.200Z,100497.00
2022-10-25T16:06:07.909Z,100495.78
2022-10-25T16:11:13.264Z,100501.25
2022-10-25T16:16:38.948Z,100501.09
2022-10-25T16:21:42.423Z,100502.22
2022-10-25T16:26:45.918Z,100502.88
2022-10-25T16:31:48.668Z,100503.47
2022-10-25T16:36:53.838Z,100520.97
2022-10-25T16:41:58.323Z,100523.41
2022-10-25T16:47:01.058Z,100526.34
2022-10-25T16:52:06.085Z,100534.88
2022-10-25T16:57:08.824Z,100530.34
2022-10-25T17:02:16.488Z,100529.50
2022-10-25T17:07:20.835Z,100534.88
2022-10-25T17:12:23.618Z,100535.84
2022-10-25T17:17:26.468Z,100535.97
2022-10-25T17:22:30.627Z,100539.78
2022-10-25T17:27:35.151Z,100539.25
2022-10-25T17:32:37.931Z,100540.09
2022-10-25T17:37:43.934Z,100542.19
2022-10-25T17:42:46.919Z,100549.72
2022-10-25T17:47:50.022Z,100556.81
2022-10-25T17:52:54.537Z,100555.25
2022-10-25T17:57:57.253Z,100554.19
2022-10-25T18:03:00.165Z,100551.78
2022-10-25T18:08:04.208Z,100553.22
2022-10-25T18:13:06.934Z,100551.16
2022-10-25T18:18:09.801Z,100547.25
2022-10-25T18:23:14.007Z,100553.25
2022-10-25T18:28:16.696Z,100550.81
2022-10-25T18:33:23.717Z,100553.16
2022-10-25T18:38:28.333Z,100557.28
2022-10-25T18:43:31.066Z,100559.63
2022-10-25T18:48:33.950Z,100545.94
2022-10-25T18:53:39.323Z,100550.19
2022-10-25T18:58:42.022Z,100535.78
2022-10-25T19:03:44.986Z,100538.00
2022-10-25T19:08:49.367Z,100542.03
2022-10-25T19:13:53.936Z,100541.66
2022-10-25T19:18:56.838Z,100552.88
2022-10-25T19:24:00.828Z,100549.25
2022-10-25T19:29:03.486Z,100557.06
2022-10-25T19:34:06.254Z,100554.13
2022-10-25T19:39:10.622Z,100556.56
2022-10-25T19:44:13.401Z,100551.19
2022-10-25T19:49:16.688Z,100562.69
2022-10-25T19:54:20.669Z,100561.69
2022-10-25T19:59:23.341Z,100557.63
2022-10-25T20:04:54.478Z,100560.31
2022-10-25T20:09:58.545Z,100560.31
2022-10-25T20:15:01.263Z,100566.34
2022-10-25T20:20:04.308Z,100558.00
2022-10-25T20:25:08.758Z,100563.25
2022-10-25T20:30:11.739Z,100569.47
2022-10-25T20:35:14.676Z,100571.72
2022-10-25T20:40:20.666Z,100583.06
2022-10-25T20:45:23.323Z,100587.34
2022-10-25T20:50:26.790Z,100581.75
2022-10-25T20:55:31.092Z,100579.78
2022-10-25T21:00:33.768Z,100579.41
2022-10-25T21:05:36.974Z,100592.84
2022-10-25T21:10:41.200Z,100589.19
2022-10-25T21:15:46.521Z,100585.41
2022-10-25T21:20:49.638Z,100592.00
2022-10-25T21:25:59.583Z,100587.34
2022-10-25T21:31:02.873Z,100582.09
2022-10-25T21:36:06.777Z,100586.38
2022-10-25T21:41:11.707Z,100586.50
2022-10-25T21:46:15.230Z,100590.78
2022-10-25T21:51:18.086Z,100589.81
2022-10-25T21:56:23.406Z,100580.88
2022-10-25T22:01:27.232Z,100579.16
2022-10-25T22:06:30.332Z,100580.03
2022-10-25T22:11:35.998Z,100585.28
2022-10-25T22:16:38.786Z,100582.59
2022-10-25T22:21:41.497Z,100579.75
2022-10-25T22:26:45.995Z,100584.41
2022-10-25T22:31:48.679Z,100576.34
2022-10-25T22:36:51.338Z,100582.72
2022-10-25T22:41:55.780Z,100574.50
2022-10-25T22:46:58.415Z,100583.44
2022-10-25T22:52:01.163Z,100589.41
2022-10-25T22:57:05.455Z,100583.56
2022-10-25T23:02:08.082Z,100583.19
2022-10-25T23:07:10.740Z,100583.31
2022-10-25T23:12:14.770Z,100579.03
2022-10-25T23:17:17.442Z,100579.63
2022-10-25T23:22:20.179Z,100567.16
2022-10-25T23:27:24.165Z,100567.28
2022-10-25T23:32:26.888Z,100571.69
2022-10-25T23:37:29.552Z,100571.56
2022-10-25T23:42:33.595Z,100575.09
2022-10-25T23:47:36.278Z,100575.94
2022-10-25T23:52:39.156Z,100579.75
2022-10-25T23:57:43.565Z,100575.22
